sensor_id;sensor_type;location;lat;lon;timestamp;P1;durP1;ratioP1;P2;durP2;ratioP2
37791;SDS011;29527;55.766;37.570;2022-09-28T00:00:28;5.30;;;4.03;;
37791;SDS011;29527;55.766;37.570;2022-09-28T00:02:54;5.45;;;4.22;;
37791;SDS011;29527;55.766;37.570;2022-09-28T00:05:23;6.50;;;4.30;;
37791;SDS011;29527;55.766;37.570;2022-09-28T00:07:54;5.25;;;4.13;;
37791;SDS011;29527;55.766;37.570;2022-09-28T00:10:21;6.20;;;4.22;;
37791;SDS011;29527;55.766;37.570;2022-09-28T00:12:50;5.32;;;3.97;;
37791;SDS011;29527;55.766;37.570;2022-09-28T00:15:17;7.70;;;4.20;;
37791;SDS011;29527;55.766;37.570;2022-09-28T00:17:42;4.03;;;3.63;;
37791;SDS011;29527;55.766;37.570;2022-09-28T00:20:09;5.03;;;4.53;;
37791;SDS011;29527;55.766;37.570;2022-09-28T00:22:36;4.28;;;3.88;;
37791;SDS011;29527;55.766;37.570;2022-09-28T00:25:01;4.55;;;3.63;;
37791;SDS011;29527;55.766;37.570;2022-09-28T00:27:28;3.97;;;3.40;;
37791;SDS011;29527;55.766;37.570;2022-09-28T00:29:54;5.32;;;4.03;;
37791;SDS011;29527;55.766;37.570;2022-09-28T00:32:20;5.35;;;3.05;;
37791;SDS011;29527;55.766;37.570;2022-09-28T00:34:49;3.38;;;2.95;;
37791;SDS011;29527;55.766;37.570;2022-09-28T00:37:15;4.40;;;3.47;;
37791;SDS011;29527;55.766;37.570;2022-09-28T00:39:43;6.63;;;3.78;;
37791;SDS011;29527;55.766;37.570;2022-09-28T00:44:39;4.25;;;3.45;;
37791;SDS011;29527;55.766;37.570;2022-09-28T00:54:58;3.75;;;3.38;;
37791;SDS011;29527;55.766;37.570;2022-09-28T00:57:26;4.53;;;3.38;;
37791;SDS011;29527;55.766;37.570;2022-09-28T00:59:53;3.20;;;2.50;;
37791;SDS011;29527;55.766;37.570;2022-09-28T01:02:20;3.40;;;3.10;;
37791;SDS011;29527;55.766;37.570;2022-09-28T01:04:46;3.88;;;3.33;;
37791;SDS011;29527;55.766;37.570;2022-09-28T01:07:12;4.20;;;3.03;;
37791;SDS011;29527;55.766;37.570;2022-09-28T01:09:40;4.03;;;2.55;;
37791;SDS011;29527;55.766;37.570;2022-09-28T01:12:06;3.42;;;3.13;;
37791;SDS011;29527;55.766;37.570;2022-09-28T01:14:32;5.07;;;3.10;;
37791;SDS011;29527;55.766;37.570;2022-09-28T01:17:22;4.35;;;2.95;;
37791;SDS011;29527;55.766;37.570;2022-09-28T01:24:45;3.05;;;2.75;;
37791;SDS011;29527;55.766;37.570;2022-09-28T01:30:21;2.80;;;2.60;;
37791;SDS011;29527;55.766;37.570;2022-09-28T01:33:02;3.25;;;2.95;;
37791;SDS011;29527;55.766;37.570;2022-09-28T01:35:35;4.57;;;3.05;;
37791;SDS011;29527;55.766;37.570;2022-09-28T01:38:20;2.92;;;2.63;;
37791;SDS011;29527;55.766;37.570;2022-09-28T01:40:49;2.50;;;2.30;;
37791;SDS011;29527;55.766;37.570;2022-09-28T01:43:17;4.78;;;2.63;;
37791;SDS011;29527;55.766;37.570;2022-09-28T01:45:48;4.43;;;2.03;;
37791;SDS011;29527;55.766;37.570;2022-09-28T01:48:25;4.00;;;2.35;;
37791;SDS011;29527;55.766;37.570;2022-09-28T01:51:05;3.55;;;2.80;;
37791;SDS011;29527;55.766;37.570;2022-09-28T01:53:38;3.42;;;2.03;;
37791;SDS011;29527;55.766;37.570;2022-09-28T01:56:42;3.28;;;2.45;;
37791;SDS011;29527;55.766;37.570;2022-09-28T01:59:06;2.80;;;2.45;;
37791;SDS011;29527;55.766;37.570;2022-09-28T02:01:48;2.40;;;1.85;;
37791;SDS011;29527;55.766;37.570;2022-09-28T02:04:19;3.92;;;2.72;;
37791;SDS011;29527;55.766;37.570;2022-09-28T02:06:53;5.38;;;2.15;;
37791;SDS011;29527;55.766;37.570;2022-09-28T02:09:43;7.22;;;2.78;;
37791;SDS011;29527;55.766;37.570;2022-09-28T02:12:18;3.05;;;2.78;;
37791;SDS011;29527;55.766;37.570;2022-09-28T02:14:49;4.00;;;2.58;;
37791;SDS011;29527;55.766;37.570;2022-09-28T02:17:21;2.83;;;2.60;;
37791;SDS011;29527;55.766;37.570;2022-09-28T02:19:46;3.35;;;2.75;;
37791;SDS011;29527;55.766;37.570;2022-09-28T02:22:46;3.25;;;2.80;;
37791;SDS011;29527;55.766;37.570;2022-09-28T02:25:20;5.07;;;2.33;;
37791;SDS011;29527;55.766;37.570;2022-09-28T02:27:59;5.43;;;3.03;;
37791;SDS011;29527;55.766;37.570;2022-09-28T02:30:32;3.70;;;2.72;;
37791;SDS011;29527;55.766;37.570;2022-09-28T02:33:14;3.17;;;2.70;;
37791;SDS011;29527;55.766;37.570;2022-09-28T02:35:43;2.95;;;2.30;;
37791;SDS011;29527;55.766;37.570;2022-09-28T02:38:10;4.20;;;2.65;;
37791;SDS011;29527;55.766;37.570;2022-09-28T02:40:37;3.72;;;2.20;;
37791;SDS011;29527;55.766;37.570;2022-09-28T02:43:22;4.25;;;2.33;;
37791;SDS011;29527;55.766;37.570;2022-09-28T03:00:07;5.28;;;2.55;;
37791;SDS011;29527;55.766;37.570;2022-09-28T03:07:53;3.63;;;2.58;;
37791;SDS011;29527;55.766;37.570;2022-09-28T03:10:24;2.83;;;2.40;;
37791;SDS011;29527;55.766;37.570;2022-09-28T03:12:57;3.40;;;2.40;;
37791;SDS011;29527;55.766;37.570;2022-09-28T03:15:27;3.38;;;2.35;;
37791;SDS011;29527;55.766;37.570;2022-09-28T03:17:54;3.90;;;2.38;;
37791;SDS011;29527;55.766;37.570;2022-09-28T03:20:20;2.53;;;2.28;;
37791;SDS011;29527;55.766;37.570;2022-09-28T03:22:46;3.75;;;2.70;;
37791;SDS011;29527;55.766;37.570;2022-09-28T03:25:11;3.08;;;2.55;;
37791;SDS011;29527;55.766;37.570;2022-09-28T03:27:37;4.90;;;2.80;;
37791;SDS011;29527;55.766;37.570;2022-09-28T03:30:03;3.30;;;2.75;;
37791;SDS011;29527;55.766;37.570;2022-09-28T03:32:29;4.95;;;2.50;;
37791;SDS011;29527;55.766;37.570;2022-09-28T03:34:54;4.78;;;2.80;;
37791;SDS011;29527;55.766;37.570;2022-09-28T03:37:20;3.90;;;2.55;;
37791;SDS011;29527;55.766;37.570;2022-09-28T03:39:45;3.53;;;2.80;;
37791;SDS011;29527;55.766;37.570;2022-09-28T03:42:11;3.95;;;2.70;;
37791;SDS011;29527;55.766;37.570;2022-09-28T03:44:36;4.05;;;2.90;;
37791;SDS011;29527;55.766;37.570;2022-09-28T03:47:02;3.45;;;2.60;;
37791;SDS011;29527;55.766;37.570;2022-09-28T03:49:27;3.70;;;2.95;;
37791;SDS011;29527;55.766;37.570;2022-09-28T03:51:53;2.80;;;2.40;;
37791;SDS011;29527;55.766;37.570;2022-09-28T03:54:18;4.50;;;3.00;;
37791;SDS011;29527;55.766;37.570;2022-09-28T03:56:44;4.68;;;2.90;;
37791;SDS011;29527;55.766;37.570;2022-09-28T03:59:09;4.78;;;2.70;;
37791;SDS011;29527;55.766;37.570;2022-09-28T04:01:34;3.05;;;2.70;;
37791;SDS011;29527;55.766;37.570;2022-09-28T04:04:00;4.82;;;2.28;;
37791;SDS011;29527;55.766;37.570;2022-09-28T04:06:26;5.88;;;2.92;;
37791;SDS011;29527;55.766;37.570;2022-09-28T04:08:51;4.60;;;2.63;;
37791;SDS011;29527;55.766;37.570;2022-09-28T04:11:17;4.00;;;2.70;;
37791;SDS011;29527;55.766;37.570;2022-09-28T04:13:42;4.13;;;2.80;;
37791;SDS011;29527;55.766;37.570;2022-09-28T04:16:13;4.70;;;2.83;;
37791;SDS011;29527;55.766;37.570;2022-09-28T04:18:39;7.10;;;3.00;;
37791;SDS011;29527;55.766;37.570;2022-09-28T04:21:05;5.15;;;3.22;;
37791;SDS011;29527;55.766;37.570;2022-09-28T04:23:34;5.30;;;2.92;;
37791;SDS011;29527;55.766;37.570;2022-09-28T04:26:02;5.05;;;3.15;;
37791;SDS011;29527;55.766;37.570;2022-09-28T04:28:29;6.65;;;3.70;;
37791;SDS011;29527;55.766;37.570;2022-09-28T04:31:14;6.55;;;3.28;;
37791;SDS011;29527;55.766;37.570;2022-09-28T04:33:43;7.25;;;3.70;;
37791;SDS011;29527;55.766;37.570;2022-09-28T04:36:09;6.65;;;3.60;;
37791;SDS011;29527;55.766;37.570;2022-09-28T04:38:35;7.20;;;3.75;;
37791;SDS011;29527;55.766;37.570;2022-09-28T04:41:01;6.07;;;3.00;;
37791;SDS011;29527;55.766;37.570;2022-09-28T04:43:27;7.10;;;3.22;;
37791;SDS011;29527;55.766;37.570;2022-09-28T04:45:56;7.10;;;3.03;;
37791;SDS011;29527;55.766;37.570;2022-09-28T04:48:24;4.40;;;3.10;;
37791;SDS011;29527;55.766;37.570;2022-09-28T04:50:53;6.20;;;3.50;;
37791;SDS011;29527;55.766;37.570;2022-09-28T04:53:19;5.80;;;3.08;;
37791;SDS011;29527;55.766;37.570;2022-09-28T04:55:53;4.38;;;2.75;;
37791;SDS011;29527;55.766;37.570;2022-09-28T04:58:21;5.00;;;2.70;;
37791;SDS011;29527;55.766;37.570;2022-09-28T05:00:47;4.47;;;2.90;;
37791;SDS011;29527;55.766;37.570;2022-09-28T05:03:15;3.78;;;2.47;;
37791;SDS011;29527;55.766;37.570;2022-09-28T05:05:44;5.78;;;2.67;;
37791;SDS011;29527;55.766;37.570;2022-09-28T05:08:10;2.90;;;2.40;;
37791;SDS011;29527;55.766;37.570;2022-09-28T05:10:35;3.38;;;2.70;;
37791;SDS011;29527;55.766;37.570;2022-09-28T05:13:04;4.57;;;2.95;;
37791;SDS011;29527;55.766;37.570;2022-09-28T05:15:30;3.55;;;2.78;;
37791;SDS011;29527;55.766;37.570;2022-09-28T05:17:55;2.50;;;2.30;;
37791;SDS011;29527;55.766;37.570;2022-09-28T05:20:21;6.28;;;3.08;;
37791;SDS011;29527;55.766;37.570;2022-09-28T05:22:46;4.45;;;2.83;;
37791;SDS011;29527;55.766;37.570;2022-09-28T05:25:11;4.68;;;2.63;;
37791;SDS011;29527;55.766;37.570;2022-09-28T05:27:37;3.60;;;2.88;;
37791;SDS011;29527;55.766;37.570;2022-09-28T05:30:02;4.95;;;3.70;;
37791;SDS011;29527;55.766;37.570;2022-09-28T05:32:28;4.15;;;2.50;;
37791;SDS011;29527;55.766;37.570;2022-09-28T05:34:54;3.80;;;2.80;;
37791;SDS011;29527;55.766;37.570;2022-09-28T05:37:20;3.33;;;2.45;;
37791;SDS011;29527;55.766;37.570;2022-09-28T05:39:45;3.78;;;3.03;;
37791;SDS011;29527;55.766;37.570;2022-09-28T05:42:11;3.83;;;2.50;;
37791;SDS011;29527;55.766;37.570;2022-09-28T05:44:36;5.57;;;2.78;;
37791;SDS011;29527;55.766;37.570;2022-09-28T05:47:02;5.05;;;2.85;;
37791;SDS011;29527;55.766;37.570;2022-09-28T05:49:28;3.83;;;2.80;;
37791;SDS011;29527;55.766;37.570;2022-09-28T05:51:55;7.07;;;2.83;;
37791;SDS011;29527;55.766;37.570;2022-09-28T05:54:21;6.55;;;3.10;;
37791;SDS011;29527;55.766;37.570;2022-09-28T05:56:46;5.30;;;2.60;;
37791;SDS011;29527;55.766;37.570;2022-09-28T05:59:12;3.70;;;2.70;;
37791;SDS011;29527;55.766;37.570;2022-09-28T06:01:37;3.22;;;2.83;;
37791;SDS011;29527;55.766;37.570;2022-09-28T06:04:03;4.47;;;2.67;;
37791;SDS011;29527;55.766;37.570;2022-09-28T06:06:28;4.60;;;2.53;;
37791;SDS011;29527;55.766;37.570;2022-09-28T06:08:54;4.70;;;2.60;;
37791;SDS011;29527;55.766;37.570;2022-09-28T06:11:19;5.75;;;2.50;;
37791;SDS011;29527;55.766;37.570;2022-09-28T06:13:44;2.88;;;2.58;;
37791;SDS011;29527;55.766;37.570;2022-09-28T06:16:13;2.97;;;2.53;;
37791;SDS011;29527;55.766;37.570;2022-09-28T06:18:40;5.65;;;3.08;;
37791;SDS011;29527;55.766;37.570;2022-09-28T06:21:06;4.50;;;2.55;;
37791;SDS011;29527;55.766;37.570;2022-09-28T06:23:34;3.67;;;2.58;;
37791;SDS011;29527;55.766;37.570;2022-09-28T06:26:00;4.38;;;2.50;;
37791;SDS011;29527;55.766;37.570;2022-09-28T06:28:25;2.55;;;1.85;;
37791;SDS011;29527;55.766;37.570;2022-09-28T06:30:51;2.30;;;2.08;;
37791;SDS011;29527;55.766;37.570;2022-09-28T06:33:17;5.55;;;2.33;;
37791;SDS011;29527;55.766;37.570;2022-09-28T06:35:42;4.40;;;2.55;;
37791;SDS011;29527;55.766;37.570;2022-09-28T06:38:08;3.65;;;2.10;;
37791;SDS011;29527;55.766;37.570;2022-09-28T06:40:34;2.95;;;2.15;;
37791;SDS011;29527;55.766;37.570;2022-09-28T06:43:00;4.50;;;2.22;;
37791;SDS011;29527;55.766;37.570;2022-09-28T06:45:27;5.38;;;2.35;;
37791;SDS011;29527;55.766;37.570;2022-09-28T06:47:54;3.70;;;2.30;;
37791;SDS011;29527;55.766;37.570;2022-09-28T06:50:22;3.40;;;2.00;;
37791;SDS011;29527;55.766;37.570;2022-09-28T06:52:52;3.65;;;2.33;;
37791;SDS011;29527;55.766;37.570;2022-09-28T06:55:19;2.38;;;2.03;;
37791;SDS011;29527;55.766;37.570;2022-09-28T06:57:45;3.00;;;2.13;;
37791;SDS011;29527;55.766;37.570;2022-09-28T07:00:11;4.22;;;2.47;;
37791;SDS011;29527;55.766;37.570;2022-09-28T07:02:52;4.82;;;2.60;;
37791;SDS011;29527;55.766;37.570;2022-09-28T07:05:18;3.30;;;1.75;;
37791;SDS011;29527;55.766;37.570;2022-09-28T07:07:50;3.60;;;1.80;;
37791;SDS011;29527;55.766;37.570;2022-09-28T07:10:20;4.57;;;2.33;;
37791;SDS011;29527;55.766;37.570;2022-09-28T07:12:50;4.15;;;2.35;;
37791;SDS011;29527;55.766;37.570;2022-09-28T07:15:16;3.17;;;2.17;;
37791;SDS011;29527;55.766;37.570;2022-09-28T07:17:43;4.30;;;2.47;;
37791;SDS011;29527;55.766;37.570;2022-09-28T07:20:08;3.30;;;2.58;;
37791;SDS011;29527;55.766;37.570;2022-09-28T07:22:34;4.53;;;2.42;;
37791;SDS011;29527;55.766;37.570;2022-09-28T07:24:59;2.75;;;2.08;;
37791;SDS011;29527;55.766;37.570;2022-09-28T07:27:25;3.83;;;1.85;;
37791;SDS011;29527;55.766;37.570;2022-09-28T07:29:51;4.88;;;2.88;;
37791;SDS011;29527;55.766;37.570;2022-09-28T07:32:19;5.72;;;3.22;;
37791;SDS011;29527;55.766;37.570;2022-09-28T07:34:45;4.53;;;3.08;;
37791;SDS011;29527;55.766;37.570;2022-09-28T07:37:12;6.95;;;2.42;;
37791;SDS011;29527;55.766;37.570;2022-09-28T07:39:38;4.22;;;2.63;;
37791;SDS011;29527;55.766;37.570;2022-09-28T07:42:23;4.63;;;2.67;;
37791;SDS011;29527;55.766;37.570;2022-09-28T07:44:50;4.85;;;2.80;;
37791;SDS011;29527;55.766;37.570;2022-09-28T07:47:15;3.30;;;2.40;;
37791;SDS011;29527;55.766;37.570;2022-09-28T07:49:42;4.38;;;2.20;;
37791;SDS011;29527;55.766;37.570;2022-09-28T07:52:08;3.67;;;2.60;;
37791;SDS011;29527;55.766;37.570;2022-09-28T07:54:34;6.03;;;2.70;;
37791;SDS011;29527;55.766;37.570;2022-09-28T07:57:00;4.07;;;2.97;;
37791;SDS011;29527;55.766;37.570;2022-09-28T07:59:26;3.17;;;2.47;;
37791;SDS011;29527;55.766;37.570;2022-09-28T08:01:51;3.60;;;2.72;;
37791;SDS011;29527;55.766;37.570;2022-09-28T08:04:16;5.22;;;2.70;;
37791;SDS011;29527;55.766;37.570;2022-09-28T08:06:42;7.60;;;3.15;;
37791;SDS011;29527;55.766;37.570;2022-09-28T08:09:09;6.18;;;3.28;;
37791;SDS011;29527;55.766;37.570;2022-09-28T08:11:34;3.45;;;2.70;;
37791;SDS011;29527;55.766;37.570;2022-09-28T08:14:00;6.20;;;2.50;;
37791;SDS011;29527;55.766;37.570;2022-09-28T08:16:26;3.92;;;2.55;;
37791;SDS011;29527;55.766;37.570;2022-09-28T08:18:52;3.97;;;2.25;;
37791;SDS011;29527;55.766;37.570;2022-09-28T08:21:18;2.70;;;2.13;;
37791;SDS011;29527;55.766;37.570;2022-09-28T08:24:04;3.55;;;2.35;;
37791;SDS011;29527;55.766;37.570;2022-09-28T08:26:30;4.05;;;2.70;;
37791;SDS011;29527;55.766;37.570;2022-09-28T08:28:55;8.05;;;2.97;;
37791;SDS011;29527;55.766;37.570;2022-09-28T08:31:21;5.20;;;3.03;;
37791;SDS011;29527;55.766;37.570;2022-09-28T08:33:46;4.68;;;3.00;;
37791;SDS011;29527;55.766;37.570;2022-09-28T08:36:18;4.45;;;2.63;;
37791;SDS011;29527;55.766;37.570;2022-09-28T08:38:47;3.20;;;2.10;;
37791;SDS011;29527;55.766;37.570;2022-09-28T08:41:15;5.82;;;2.20;;
37791;SDS011;29527;55.766;37.570;2022-09-28T08:47:00;3.42;;;1.90;;
37791;SDS011;29527;55.766;37.570;2022-09-28T08:54:52;5.00;;;2.38;;
37791;SDS011;29527;55.766;37.570;2022-09-28T08:57:30;4.60;;;2.55;;
37791;SDS011;29527;55.766;37.570;2022-09-28T09:00:00;5.90;;;2.50;;
37791;SDS011;29527;55.766;37.570;2022-09-28T09:02:30;8.32;;;3.40;;
37791;SDS011;29527;55.766;37.570;2022-09-28T09:04:57;4.47;;;2.92;;
37791;SDS011;29527;55.766;37.570;2022-09-28T09:18:35;4.13;;;2.53;;
37791;SDS011;29527;55.766;37.570;2022-09-28T09:20:39;6.45;;;2.70;;
37791;SDS011;29527;55.766;37.570;2022-09-28T09:23:16;4.50;;;2.80;;
37791;SDS011;29527;55.766;37.570;2022-09-28T09:25:51;7.28;;;3.75;;
37791;SDS011;29527;55.766;37.570;2022-09-28T09:43:33;4.25;;;2.88;;
37791;SDS011;29527;55.766;37.570;2022-09-28T10:00:18;5.32;;;3.10;;
37791;SDS011;29527;55.766;37.570;2022-09-28T10:02:44;7.25;;;3.10;;
37791;SDS011;29527;55.766;37.570;2022-09-28T10:07:42;4.90;;;3.47;;
37791;SDS011;29527;55.766;37.570;2022-09-28T10:10:34;3.70;;;3.03;;
37791;SDS011;29527;55.766;37.570;2022-09-28T10:13:00;6.88;;;3.53;;
37791;SDS011;29527;55.766;37.570;2022-09-28T10:15:28;4.88;;;3.22;;
37791;SDS011;29527;55.766;37.570;2022-09-28T10:17:55;4.38;;;2.97;;
37791;SDS011;29527;55.766;37.570;2022-09-28T10:20:24;4.07;;;2.85;;
37791;SDS011;29527;55.766;37.570;2022-09-28T10:22:55;5.50;;;3.45;;
37791;SDS011;29527;55.766;37.570;2022-09-28T10:25:21;6.88;;;3.53;;
37791;SDS011;29527;55.766;37.570;2022-09-28T10:27:48;4.78;;;3.60;;
37791;SDS011;29527;55.766;37.570;2022-09-28T10:30:20;6.78;;;3.78;;
37791;SDS011;29527;55.766;37.570;2022-09-28T10:32:51;6.75;;;3.85;;
37791;SDS011;29527;55.766;37.570;2022-09-28T10:35:26;5.78;;;3.78;;
37791;SDS011;29527;55.766;37.570;2022-09-28T10:38:12;7.40;;;4.05;;
37791;SDS011;29527;55.766;37.570;2022-09-28T10:40:41;6.88;;;4.05;;
37791;SDS011;29527;55.766;37.570;2022-09-28T10:43:20;6.03;;;3.85;;
37791;SDS011;29527;55.766;37.570;2022-09-28T10:48:30;7.35;;;4.30;;
37791;SDS011;29527;55.766;37.570;2022-09-28T10:51:11;6.43;;;4.32;;
37791;SDS011;29527;55.766;37.570;2022-09-28T10:53:36;5.88;;;4.45;;
37791;SDS011;29527;55.766;37.570;2022-09-28T10:58:37;6.93;;;4.60;;
37791;SDS011;29527;55.766;37.570;2022-09-28T11:01:09;9.60;;;5.18;;
37791;SDS011;29527;55.766;37.570;2022-09-28T11:03:40;7.53;;;4.97;;
37791;SDS011;29527;55.766;37.570;2022-09-28T11:06:26;8.88;;;5.97;;
37791;SDS011;29527;55.766;37.570;2022-09-28T11:08:58;10.32;;;6.53;;
37791;SDS011;29527;55.766;37.570;2022-09-28T11:11:25;8.25;;;5.45;;
37791;SDS011;29527;55.766;37.570;2022-09-28T11:13:55;6.95;;;5.05;;
37791;SDS011;29527;55.766;37.570;2022-09-28T11:16:34;8.07;;;5.38;;
37791;SDS011;29527;55.766;37.570;2022-09-28T11:21:44;6.72;;;4.85;;
37791;SDS011;29527;55.766;37.570;2022-09-28T11:26:45;8.02;;;5.38;;
37791;SDS011;29527;55.766;37.570;2022-09-28T11:29:21;7.28;;;5.32;;
37791;SDS011;29527;55.766;37.570;2022-09-28T11:32:01;8.43;;;5.03;;
37791;SDS011;29527;55.766;37.570;2022-09-28T11:34:50;8.98;;;5.40;;
37791;SDS011;29527;55.766;37.570;2022-09-28T11:42:27;7.93;;;4.80;;
37791;SDS011;29527;55.766;37.570;2022-09-28T11:47:50;7.82;;;5.10;;
37791;SDS011;29527;55.766;37.570;2022-09-28T11:55:58;8.07;;;5.25;;
37791;SDS011;29527;55.766;37.570;2022-09-28T11:58:47;7.43;;;5.20;;
37791;SDS011;29527;55.766;37.570;2022-09-28T12:04:11;6.20;;;5.13;;
37791;SDS011;29527;55.766;37.570;2022-09-28T12:06:52;9.07;;;5.25;;
37791;SDS011;29527;55.766;37.570;2022-09-28T12:09:27;9.45;;;4.88;;
37791;SDS011;29527;55.766;37.570;2022-09-28T12:12:01;9.63;;;4.70;;
37791;SDS011;29527;55.766;37.570;2022-09-28T12:14:34;13.07;;;5.13;;
37791;SDS011;29527;55.766;37.570;2022-09-28T12:19:43;11.23;;;5.05;;
37791;SDS011;29527;55.766;37.570;2022-09-28T12:22:38;11.82;;;4.97;;
37791;SDS011;29527;55.766;37.570;2022-09-28T12:25:15;7.90;;;4.85;;
37791;SDS011;29527;55.766;37.570;2022-09-28T12:30:31;5.60;;;3.95;;
37791;SDS011;29527;55.766;37.570;2022-09-28T12:46:06;6.10;;;3.53;;
37791;SDS011;29527;55.766;37.570;2022-09-28T12:48:56;4.32;;;3.80;;
37791;SDS011;29527;55.766;37.570;2022-09-28T12:51:53;5.28;;;3.92;;
37791;SDS011;29527;55.766;37.570;2022-09-28T13:17:16;8.77;;;3.15;;
37791;SDS011;29527;55.766;37.570;2022-09-28T13:19:55;7.25;;;3.10;;
37791;SDS011;29527;55.766;37.570;2022-09-28T13:23:00;11.35;;;3.63;;
37791;SDS011;29527;55.766;37.570;2022-09-28T13:25:32;9.23;;;3.78;;
37791;SDS011;29527;55.766;37.570;2022-09-28T13:28:04;7.82;;;4.30;;
37791;SDS011;29527;55.766;37.570;2022-09-28T13:30:31;9.00;;;3.67;;
37791;SDS011;29527;55.766;37.570;2022-09-28T13:33:00;6.43;;;3.70;;
37791;SDS011;29527;55.766;37.570;2022-09-28T13:35:28;9.15;;;4.68;;
37791;SDS011;29527;55.766;37.570;2022-09-28T13:43:30;6.15;;;3.50;;
37791;SDS011;29527;55.766;37.570;2022-09-28T13:46:09;10.18;;;3.22;;
37791;SDS011;29527;55.766;37.570;2022-09-28T13:48:58;5.43;;;3.35;;
37791;SDS011;29527;55.766;37.570;2022-09-28T13:54:37;10.18;;;3.95;;
37791;SDS011;29527;55.766;37.570;2022-09-28T13:57:24;6.20;;;3.55;;
37791;SDS011;29527;55.766;37.570;2022-09-28T14:02:34;6.68;;;3.67;;
37791;SDS011;29527;55.766;37.570;2022-09-28T14:10:45;8.20;;;4.20;;
37791;SDS011;29527;55.766;37.570;2022-09-28T14:18:54;8.60;;;5.45;;
37791;SDS011;29527;55.766;37.570;2022-09-28T14:21:33;7.57;;;5.45;;
37791;SDS011;29527;55.766;37.570;2022-09-28T14:24:10;8.13;;;4.63;;
37791;SDS011;29527;55.766;37.570;2022-09-28T14:26:50;9.02;;;5.10;;
37791;SDS011;29527;55.766;37.570;2022-09-28T14:29:31;7.93;;;4.13;;
37791;SDS011;29527;55.766;37.570;2022-09-28T14:34:34;8.18;;;4.15;;
37791;SDS011;29527;55.766;37.570;2022-09-28T14:40:28;4.65;;;3.78;;
37791;SDS011;29527;55.766;37.570;2022-09-28T14:43:18;8.10;;;4.03;;
37791;SDS011;29527;55.766;37.570;2022-09-28T14:45:50;6.68;;;3.70;;
37791;SDS011;29527;55.766;37.570;2022-09-28T14:56:41;7.32;;;3.72;;
37791;SDS011;29527;55.766;37.570;2022-09-28T14:59:12;7.18;;;3.80;;
37791;SDS011;29527;55.766;37.570;2022-09-28T15:01:42;9.07;;;3.85;;
37791;SDS011;29527;55.766;37.570;2022-09-28T15:04:12;7.15;;;4.05;;
37791;SDS011;29527;55.766;37.570;2022-09-28T15:06:45;7.72;;;3.97;;
37791;SDS011;29527;55.766;37.570;2022-09-28T15:09:25;7.40;;;4.50;;
37791;SDS011;29527;55.766;37.570;2022-09-28T15:12:01;6.45;;;3.75;;
37791;SDS011;29527;55.766;37.570;2022-09-28T15:14:27;7.22;;;3.83;;
37791;SDS011;29527;55.766;37.570;2022-09-28T15:16:59;8.23;;;4.20;;
37791;SDS011;29527;55.766;37.570;2022-09-28T15:22:16;5.30;;;3.50;;
37791;SDS011;29527;55.766;37.570;2022-09-28T15:25:00;7.07;;;3.42;;
37791;SDS011;29527;55.766;37.570;2022-09-28T15:27:35;4.28;;;3.42;;
37791;SDS011;29527;55.766;37.570;2022-09-28T15:32:49;4.78;;;3.17;;
37791;SDS011;29527;55.766;37.570;2022-09-28T15:35:22;7.53;;;3.20;;
37791;SDS011;29527;55.766;37.570;2022-09-28T15:37:50;8.15;;;3.45;;
37791;SDS011;29527;55.766;37.570;2022-09-28T15:40:28;7.82;;;3.72;;
37791;SDS011;29527;55.766;37.570;2022-09-28T15:42:57;9.55;;;3.03;;
37791;SDS011;29527;55.766;37.570;2022-09-28T15:47:52;6.43;;;3.53;;
37791;SDS011;29527;55.766;37.570;2022-09-28T15:50:28;5.13;;;3.55;;
37791;SDS011;29527;55.766;37.570;2022-09-28T15:55:29;6.60;;;2.95;;
37791;SDS011;29527;55.766;37.570;2022-09-28T16:00:31;8.93;;;3.80;;
37791;SDS011;29527;55.766;37.570;2022-09-28T16:03:03;6.72;;;3.50;;
37791;SDS011;29527;55.766;37.570;2022-09-28T16:08:35;5.63;;;3.40;;
37791;SDS011;29527;55.766;37.570;2022-09-28T16:16:16;5.15;;;3.15;;
37791;SDS011;29527;55.766;37.570;2022-09-28T16:18:48;5.53;;;3.40;;
37791;SDS011;29527;55.766;37.570;2022-09-28T16:23:50;5.15;;;3.47;;
37791;SDS011;29527;55.766;37.570;2022-09-28T16:26:32;6.18;;;3.88;;
37791;SDS011;29527;55.766;37.570;2022-09-28T16:29:08;4.60;;;3.20;;
37791;SDS011;29527;55.766;37.570;2022-09-28T16:31:52;4.05;;;2.47;;
37791;SDS011;29527;55.766;37.570;2022-09-28T16:34:18;6.47;;;2.47;;
37791;SDS011;29527;55.766;37.570;2022-09-28T16:36:47;3.92;;;2.53;;
37791;SDS011;29527;55.766;37.570;2022-09-28T16:39:14;3.78;;;2.28;;
37791;SDS011;29527;55.766;37.570;2022-09-28T16:41:42;2.75;;;2.47;;
37791;SDS011;29527;55.766;37.570;2022-09-28T16:44:15;11.93;;;7.35;;
37791;SDS011;29527;55.766;37.570;2022-09-28T16:46:44;4.13;;;3.15;;
37791;SDS011;29527;55.766;37.570;2022-09-28T16:49:11;4.03;;;3.13;;
37791;SDS011;29527;55.766;37.570;2022-09-28T16:51:45;4.15;;;3.63;;
37791;SDS011;29527;55.766;37.570;2022-09-28T16:57:00;4.85;;;2.78;;
37791;SDS011;29527;55.766;37.570;2022-09-28T16:59:27;2.90;;;2.60;;
37791;SDS011;29527;55.766;37.570;2022-09-28T17:01:53;4.22;;;3.03;;
37791;SDS011;29527;55.766;37.570;2022-09-28T17:04:20;3.05;;;2.75;;
37791;SDS011;29527;55.766;37.570;2022-09-28T17:06:47;8.35;;;3.80;;
37791;SDS011;29527;55.766;37.570;2022-09-28T17:09:14;3.38;;;2.80;;
37791;SDS011;29527;55.766;37.570;2022-09-28T17:11:39;4.55;;;2.63;;
37791;SDS011;29527;55.766;37.570;2022-09-28T17:14:05;7.00;;;2.83;;
37791;SDS011;29527;55.766;37.570;2022-09-28T17:16:30;4.50;;;2.67;;
37791;SDS011;29527;55.766;37.570;2022-09-28T17:18:57;3.53;;;2.60;;
37791;SDS011;29527;55.766;37.570;2022-09-28T17:21:23;4.43;;;2.78;;
37791;SDS011;29527;55.766;37.570;2022-09-28T17:23:50;5.07;;;2.60;;
37791;SDS011;29527;55.766;37.570;2022-09-28T17:26:17;5.20;;;3.05;;
37791;SDS011;29527;55.766;37.570;2022-09-28T17:28:56;6.30;;;3.03;;
37791;SDS011;29527;55.766;37.570;2022-09-28T17:31:26;3.97;;;2.80;;
37791;SDS011;29527;55.766;37.570;2022-09-28T17:33:53;4.38;;;3.17;;
37791;SDS011;29527;55.766;37.570;2022-09-28T17:36:19;4.63;;;2.67;;
37791;SDS011;29527;55.766;37.570;2022-09-28T17:38:45;7.72;;;3.05;;
37791;SDS011;29527;55.766;37.570;2022-09-28T17:41:13;4.22;;;2.50;;
37791;SDS011;29527;55.766;37.570;2022-09-28T17:43:40;2.92;;;2.40;;
37791;SDS011;29527;55.766;37.570;2022-09-28T17:46:39;2.72;;;2.45;;
37791;SDS011;29527;55.766;37.570;2022-09-28T17:49:01;2.28;;;2.08;;
37791;SDS011;29527;55.766;37.570;2022-09-28T17:51:29;4.88;;;2.40;;
37791;SDS011;29527;55.766;37.570;2022-09-28T17:53:56;7.07;;;3.05;;
37791;SDS011;29527;55.766;37.570;2022-09-28T17:56:25;4.30;;;2.88;;
37791;SDS011;29527;55.766;37.570;2022-09-28T17:58:51;4.40;;;2.88;;
37791;SDS011;29527;55.766;37.570;2022-09-28T18:01:16;3.92;;;3.22;;
37791;SDS011;29527;55.766;37.570;2022-09-28T18:03:42;4.03;;;3.63;;
37791;SDS011;29527;55.766;37.570;2022-09-28T18:06:12;7.18;;;3.78;;
37791;SDS011;29527;55.766;37.570;2022-09-28T18:08:40;7.93;;;3.65;;
37791;SDS011;29527;55.766;37.570;2022-09-28T18:11:07;6.60;;;4.00;;
37791;SDS011;29527;55.766;37.570;2022-09-28T18:13:33;4.72;;;3.70;;
37791;SDS011;29527;55.766;37.570;2022-09-28T18:15:59;4.65;;;3.95;;
37791;SDS011;29527;55.766;37.570;2022-09-28T18:18:24;6.43;;;4.40;;
37791;SDS011;29527;55.766;37.570;2022-09-28T18:20:50;7.72;;;4.38;;
37791;SDS011;29527;55.766;37.570;2022-09-28T18:23:16;7.47;;;4.75;;
37791;SDS011;29527;55.766;37.570;2022-09-28T18:25:42;6.78;;;4.30;;
37791;SDS011;29527;55.766;37.570;2022-09-28T18:28:09;4.45;;;3.85;;
37791;SDS011;29527;55.766;37.570;2022-09-28T18:30:39;6.47;;;4.28;;